Terminal Aerodrome Forecast
Issued by NWS Newport/Morehead City, NC

Home | Current Version | Previous Version | Text Only | Print | Product List | Glossary Off
Versions: 1 2 3 4 5 6 7 8 9 10 11 12 13 14 15 16 17 18 19 20 21

000
FTUS42 KMHX 012039 AAC
TAFEWN
TAF AMD
KEWN 012039Z 0121/0218 01015G25KT P6SM -RA BKN025 OVC035
     FM020000 35010KT P6SM SCT015 SCT025 BKN035
     FM020500 34010KT P6SM SKC
     FM021400 35010G15KT P6SM SKC=

USA.gov is the U.S. government's official web portal to all federal, state and local government web resources and services.